Time;durP1;ratioP1;P1;durP2;ratioP2;P2;SDS_P1;SDS_P2;PMS_P1;PMS_P2;Temp;Humidity;BMP_temperature;BMP_pressure;BME280_temperature;BME280_humidity;BME280_pressure;Samples;Min_cycle;Max_cycle;Signal;HPM_P1;HPM_P2
2022/12/28 00:00:01;;;;;;;16.58;3.15;;;10.10;99.90;;;;;;5112662;28;20039;-76
2022/12/28 00:02:27;;;;;;;12.90;2.42;;;10.20;99.90;;;;;;5095662;28;20038;-76
2022/12/28 00:04:53;;;;;;;6.30;2.08;;;10.20;99.90;;;;;;5108008;28;20340;-76
2022/12/28 00:07:18;;;;;;;12.60;1.73;;;10.20;99.90;;;;;;5107616;28;20083;-75
2022/12/28 00:09:44;;;;;;;10.65;1.67;;;10.20;99.90;;;;;;5112733;28;20038;-76
2022/12/28 00:12:10;;;;;;;16.05;1.67;;;10.20;99.90;;;;;;5112686;28;20027;-75
2022/12/28 00:14:35;;;;;;;8.57;1.42;;;10.20;99.90;;;;;;5110303;28;20028;-75
2022/12/28 00:17:01;;;;;;;11.45;1.98;;;10.20;99.90;;;;;;5109433;28;20050;-77
2022/12/28 00:19:27;;;;;;;13.45;2.42;;;10.20;99.90;;;;;;5113892;28;20016;-75
2022/12/28 00:21:53;;;;;;;10.80;2.10;;;10.20;99.90;;;;;;5111449;28;20106;-75
2022/12/28 00:24:21;;;;;;;16.70;2.35;;;10.30;99.90;;;;;;5085897;28;20024;-77
2022/12/28 00:26:47;;;;;;;18.08;2.45;;;10.30;99.90;;;;;;5109396;28;20088;-78
2022/12/28 00:29:14;;;;;;;19.88;2.00;;;10.20;99.90;;;;;;5113556;28;20019;-76
2022/12/28 00:31:39;;;;;;;5.07;1.65;;;10.20;99.90;;;;;;5113469;28;20180;-77
2022/12/28 00:34:05;;;;;;;12.40;2.67;;;10.20;99.90;;;;;;5093657;28;20499;-76
2022/12/28 00:36:31;;;;;;;10.93;1.17;;;10.20;99.90;;;;;;5111335;28;20475;-75
2022/12/28 00:38:57;;;;;;;11.25;1.63;;;10.30;99.90;;;;;;5106726;28;20034;-76
2022/12/28 00:41:23;;;;;;;12.23;2.25;;;10.30;99.90;;;;;;5111629;28;20110;-75
2022/12/28 00:43:49;;;;;;;18.17;2.88;;;10.30;99.90;;;;;;5111915;28;20036;-76
2022/12/28 00:46:16;;;;;;;8.32;1.85;;;10.30;99.90;;;;;;5108910;28;20030;-76
2022/12/28 00:48:43;;;;;;;9.07;1.63;;;10.40;99.90;;;;;;5107926;28;20028;-75
2022/12/28 00:51:13;;;;;;;10.43;1.67;;;10.40;99.90;;;;;;5112608;28;20127;-74
2022/12/28 00:53:39;;;;;;;7.72;2.03;;;10.40;99.90;;;;;;5104050;28;20034;-77
2022/12/28 00:56:11;;;;;;;8.85;2.00;;;10.40;99.90;;;;;;5101429;28;20111;-76
2022/12/28 00:58:37;;;;;;;14.68;1.85;;;10.40;99.90;;;;;;5100202;28;20085;-74
2022/12/28 01:01:04;;;;;;;8.15;1.15;;;10.40;99.90;;;;;;5112455;27;20035;-76
2022/12/28 01:03:30;;;;;;;10.02;1.48;;;10.50;99.90;;;;;;5113111;28;20028;-76
2022/12/28 01:05:56;;;;;;;5.78;1.35;;;10.40;99.90;;;;;;5109734;28;20494;-75
2022/12/28 01:08:22;;;;;;;18.85;2.40;;;10.40;99.90;;;;;;5111587;28;20034;-77
2022/12/28 01:10:48;;;;;;;6.93;1.48;;;10.50;99.90;;;;;;5110700;28;20098;-77
2022/12/28 01:13:13;;;;;;;12.63;1.30;;;10.50;99.90;;;;;;5110368;28;20035;-75
2022/12/28 01:15:39;;;;;;;14.65;1.70;;;10.40;99.90;;;;;;5110350;28;20515;-75
2022/12/28 01:18:05;;;;;;;9.35;1.10;;;10.40;99.90;;;;;;5110096;28;20027;-74
2022/12/28 01:20:30;;;;;;;12.00;1.77;;;10.50;99.90;;;;;;5112150;28;20039;-75
2022/12/28 01:22:56;;;;;;;10.55;2.08;;;10.50;99.90;;;;;;5110149;28;20509;-75
2022/12/28 01:25:22;;;;;;;9.32;1.85;;;10.50;99.90;;;;;;5110674;28;20032;-77
2022/12/28 01:27:48;;;;;;;5.50;1.30;;;10.50;99.90;;;;;;5107867;28;20020;-74
2022/12/28 01:30:14;;;;;;;14.73;2.55;;;10.50;99.90;;;;;;5111652;28;20080;-74
2022/12/28 01:32:41;;;;;;;12.55;1.92;;;10.60;99.90;;;;;;5111620;28;20024;-74
2022/12/28 01:35:07;;;;;;;12.32;2.25;;;10.50;99.90;;;;;;5110692;28;20051;-75
2022/12/28 01:37:32;;;;;;;9.60;1.85;;;10.50;99.90;;;;;;5111323;28;20032;-74
2022/12/28 01:39:58;;;;;;;6.78;1.17;;;10.50;99.90;;;;;;5109981;28;20023;-77
2022/12/28 01:42:24;;;;;;;8.27;1.67;;;10.60;99.90;;;;;;5111048;28;20360;-76
2022/12/28 01:44:51;;;;;;;10.82;1.52;;;10.50;99.90;;;;;;5108755;28;20023;-76
2022/12/28 01:47:25;;;;;;;12.55;1.42;;;10.60;99.90;;;;;;5098080;28;20031;-75
2022/12/28 01:50:02;;;;;;;9.70;1.60;;;10.60;99.90;;;;;;5092016;28;20472;-76
2022/12/28 01:52:39;;;;;;;10.10;1.27;;;10.60;99.90;;;;;;5118306;27;20049;-75
2022/12/28 01:55:24;;;;;;;8.65;1.48;;;10.50;99.90;;;;;;5108614;28;20039;-74
2022/12/28 01:58:04;;;;;;;11.52;2.10;;;10.60;99.90;;;;;;5098480;28;20056;-77
2022/12/28 02:00:30;;;;;;;13.82;1.58;;;10.50;99.90;;;;;;5097900;28;20038;-76
2022/12/28 02:03:04;;;;;;;8.40;1.98;;;10.60;99.90;;;;;;5108823;28;20027;-76
2022/12/28 02:05:38;;;;;;;11.35;1.52;;;10.60;99.90;;;;;;5109416;28;20114;-75
2022/12/28 02:08:06;;;;;;;11.68;1.80;;;10.60;99.90;;;;;;5096180;28;20028;-74
2022/12/28 02:10:34;;;;;;;7.28;2.38;;;10.60;99.90;;;;;;5110527;28;20114;-76
2022/12/28 02:13:02;;;;;;;8.48;1.20;;;10.60;99.90;;;;;;5100098;28;20088;-75
2022/12/28 02:15:27;;;;;;;8.10;1.00;;;10.60;99.90;;;;;;5106034;28;20046;-74
2022/12/28 02:17:54;;;;;;;12.38;1.33;;;10.60;99.90;;;;;;5108537;28;20114;-76
2022/12/28 02:20:19;;;;;;;12.88;2.35;;;10.60;99.90;;;;;;5093498;28;20027;-77
2022/12/28 02:22:54;;;;;;;10.18;1.50;;;10.60;99.90;;;;;;5103618;28;20081;-75
2022/12/28 02:25:42;;;;;;;10.95;1.50;;;10.60;99.90;;;;;;5111333;28;20110;-76
2022/12/28 02:28:27;;;;;;;8.13;1.02;;;10.60;99.90;;;;;;5110826;28;20023;-74
2022/12/28 02:31:01;;;;;;;10.90;1.45;;;10.60;99.90;;;;;;5107670;28;20058;-76
2022/12/28 02:33:38;;;;;;;10.43;1.45;;;10.60;99.90;;;;;;5098769;28;20031;-76
2022/12/28 02:36:15;;;;;;;7.85;1.20;;;10.60;99.90;;;;;;5100270;28;20089;-76
2022/12/28 02:38:47;;;;;;;8.10;1.80;;;10.60;99.90;;;;;;5097506;28;20061;-76
2022/12/28 02:41:16;;;;;;;9.77;1.38;;;10.60;99.90;;;;;;5108957;28;20023;-76
2022/12/28 02:43:42;;;;;;;10.82;1.52;;;10.60;99.90;;;;;;5108898;28;20414;-76
2022/12/28 02:51:55;;;;;;;13.82;2.55;;;10.50;99.90;;;;;;5107195;28;20067;-77
2022/12/28 02:57:35;;;;;;;9.73;1.25;;;10.60;99.90;;;;;;5104089;28;20046;-76
2022/12/28 03:00:11;;;;;;;10.25;1.73;;;10.60;99.90;;;;;;5101420;28;20954;-75
2022/12/28 03:02:55;;;;;;;8.68;0.90;;;10.60;99.90;;;;;;5099036;28;20392;-76
2022/12/28 03:09:33;;;;;;;8.32;1.15;;;10.60;99.90;;;;;;5055875;28;20098;-74
2022/12/28 03:12:26;;;;;;;7.43;1.65;;;10.60;99.90;;;;;;5024729;28;20029;-75
2022/12/28 03:14:55;;;;;;;14.40;1.33;;;10.60;99.90;;;;;;5056936;28;20063;-74
2022/12/28 03:31:23;;;;;;;10.32;1.80;;;10.70;99.90;;;;;;5055178;28;20048;-75
2022/12/28 03:34:05;;;;;;;9.60;1.73;;;10.70;99.90;;;;;;5042226;28;20439;-75
2022/12/28 03:36:52;;;;;;;11.32;1.23;;;10.70;99.90;;;;;;5039355;28;20048;-74
2022/12/28 03:39:43;;;;;;;7.97;1.30;;;10.70;99.90;;;;;;5093216;28;20132;-75
2022/12/28 03:45:30;;;;;;;8.85;1.00;;;10.70;99.90;;;;;;5091707;28;20433;-74
2022/12/28 03:47:59;;;;;;;9.80;1.08;;;10.70;99.90;;;;;;5093953;28;20560;-75
2022/12/28 03:50:25;;;;;;;12.00;1.33;;;10.60;99.90;;;;;;5112261;28;20035;-77
2022/12/28 03:52:51;;;;;;;12.68;1.60;;;10.60;99.90;;;;;;5092978;28;20023;-76
2022/12/28 03:55:17;;;;;;;11.15;1.02;;;10.70;99.90;;;;;;5108148;28;20019;-73
2022/12/28 03:57:43;;;;;;;10.32;1.65;;;10.60;99.90;;;;;;5111494;28;20046;-74
2022/12/28 04:00:09;;;;;;;8.65;1.50;;;10.70;99.90;;;;;;5106425;28;20028;-75
2022/12/28 04:02:36;;;;;;;14.68;2.20;;;10.70;99.90;;;;;;5110409;28;20031;-75
2022/12/28 04:05:03;;;;;;;13.90;1.70;;;10.60;99.90;;;;;;5112101;28;20076;-75
2022/12/28 04:07:29;;;;;;;11.35;1.90;;;10.60;99.90;;;;;;5109104;28;20032;-76
2022/12/28 04:09:55;;;;;;;15.88;1.60;;;10.70;99.90;;;;;;5110925;28;20384;-76
2022/12/28 04:12:20;;;;;;;13.43;2.25;;;10.70;99.90;;;;;;5110089;28;20467;-76
2022/12/28 04:14:46;;;;;;;11.23;1.92;;;10.70;99.90;;;;;;5111798;28;20372;-75
2022/12/28 04:17:12;;;;;;;10.48;2.17;;;10.70;99.90;;;;;;5113007;28;20039;-74
2022/12/28 04:19:37;;;;;;;9.77;1.45;;;10.70;99.90;;;;;;5112165;28;20024;-74
2022/12/28 04:22:03;;;;;;;16.05;1.65;;;10.60;99.90;;;;;;5089293;28;20065;-76
2022/12/28 04:24:29;;;;;;;8.43;1.15;;;10.60;99.90;;;;;;5098747;28;20061;-75
2022/12/28 04:26:54;;;;;;;10.13;1.55;;;10.70;99.90;;;;;;5108080;28;20050;-74
2022/12/28 04:29:20;;;;;;;11.82;2.17;;;10.60;99.90;;;;;;5112205;28;20020;-76
2022/12/28 04:31:46;;;;;;;9.95;2.35;;;10.60;99.90;;;;;;5111417;28;20051;-76
2022/12/28 04:34:12;;;;;;;8.85;1.48;;;10.60;99.90;;;;;;5113130;28;20028;-74
2022/12/28 04:36:38;;;;;;;13.70;1.50;;;10.60;99.90;;;;;;5109984;28;20035;-75
2022/12/28 04:39:04;;;;;;;13.85;3.33;;;10.60;99.90;;;;;;5092231;28;20085;-75
2022/12/28 04:44:10;;;;;;;12.45;2.42;;;10.60;99.90;;;;;;5090643;28;20492;-70
2022/12/28 04:46:36;;;;;;;9.40;1.38;;;10.60;99.90;;;;;;5083838;28;20025;-70
2022/12/28 04:49:01;;;;;;;17.70;1.25;;;10.60;99.90;;;;;;5081502;28;20039;-70
2022/12/28 04:51:28;;;;;;;5.60;1.02;;;10.60;99.90;;;;;;5091744;28;20463;-70
2022/12/28 04:53:59;;;;;;;7.70;1.13;;;10.60;99.90;;;;;;5059757;28;20028;-69
2022/12/28 04:56:26;;;;;;;10.88;1.70;;;10.60;99.90;;;;;;5078390;28;20044;-68
2022/12/28 04:58:57;;;;;;;11.02;1.05;;;10.60;99.90;;;;;;5078822;28;20032;-68
2022/12/28 05:01:23;;;;;;;10.85;1.73;;;10.60;99.90;;;;;;5076275;28;20149;-69
2022/12/28 05:03:50;;;;;;;11.13;1.63;;;10.60;99.90;;;;;;5079447;28;20131;-69
2022/12/28 05:06:18;;;;;;;9.13;1.58;;;10.60;99.90;;;;;;5080514;28;20024;-70
2022/12/28 05:08:45;;;;;;;11.38;1.38;;;10.60;99.90;;;;;;5078788;28;20027;-70
2022/12/28 05:11:13;;;;;;;10.38;1.20;;;10.50;99.90;;;;;;5082498;28;20036;-69
2022/12/28 05:13:39;;;;;;;11.77;1.70;;;10.60;99.90;;;;;;5084535;28;20085;-69
2022/12/28 05:16:08;;;;;;;10.05;2.10;;;10.60;99.90;;;;;;5076377;28;20499;-69
2022/12/28 05:18:35;;;;;;;8.70;1.25;;;10.60;99.90;;;;;;5054128;28;20392;-70
2022/12/28 05:21:04;;;;;;;15.02;1.85;;;10.60;99.90;;;;;;5080189;28;20060;-68
2022/12/28 05:23:30;;;;;;;16.50;2.05;;;10.60;99.90;;;;;;5091168;28;20097;-69
2022/12/28 05:25:56;;;;;;;20.45;1.85;;;10.60;99.90;;;;;;5077996;28;20039;-69
2022/12/28 05:28:23;;;;;;;12.68;1.80;;;10.60;99.90;;;;;;5085273;28;20024;-69
2022/12/28 05:30:49;;;;;;;15.00;2.65;;;10.60;99.90;;;;;;5069355;28;20028;-69
2022/12/28 05:33:15;;;;;;;17.02;1.73;;;10.70;99.90;;;;;;5083886;28;20032;-69
2022/12/28 05:35:41;;;;;;;18.60;3.10;;;10.70;99.90;;;;;;5090106;28;20089;-69
2022/12/28 05:38:07;;;;;;;13.20;1.92;;;10.70;99.90;;;;;;5073884;28;20086;-69
2022/12/28 05:40:33;;;;;;;13.15;2.20;;;10.60;99.90;;;;;;5083112;28;20401;-68
2022/12/28 05:42:59;;;;;;;19.52;1.95;;;10.70;99.90;;;;;;5077284;28;20074;-69
2022/12/28 05:45:25;;;;;;;18.40;2.78;;;10.70;99.90;;;;;;5090046;28;20024;-69
2022/12/28 05:47:53;;;;;;;17.58;2.45;;;10.80;99.90;;;;;;5083514;28;20047;-69
2022/12/28 05:50:19;;;;;;;16.35;2.40;;;10.70;99.90;;;;;;5078388;28;20028;-69
2022/12/28 05:52:45;;;;;;;16.27;1.83;;;10.70;99.90;;;;;;5085689;28;20400;-70
2022/12/28 05:55:10;;;;;;;13.85;2.00;;;10.80;99.90;;;;;;5086196;28;20024;-69
2022/12/28 05:57:36;;;;;;;18.42;1.90;;;10.80;99.90;;;;;;5070735;28;20491;-69
2022/12/28 06:00:03;;;;;;;13.18;2.63;;;10.70;99.90;;;;;;5078785;28;20040;-69
2022/12/28 06:02:28;;;;;;;15.23;1.90;;;10.70;99.90;;;;;;5075097;28;20032;-70
2022/12/28 06:04:54;;;;;;;17.45;2.83;;;10.70;99.90;;;;;;5059331;28;20147;-70
2022/12/28 06:07:20;;;;;;;16.27;2.00;;;10.70;99.90;;;;;;5085485;28;20055;-70
2022/12/28 06:09:46;;;;;;;17.67;2.70;;;10.70;99.90;;;;;;5086808;28;20020;-71
2022/12/28 06:12:12;;;;;;;14.65;2.95;;;10.70;99.90;;;;;;5080968;28;20108;-70
2022/12/28 06:14:37;;;;;;;12.63;2.15;;;10.70;99.90;;;;;;5070569;28;20078;-70
2022/12/28 06:17:03;;;;;;;15.60;2.97;;;10.60;99.90;;;;;;5079907;28;20071;-70
2022/12/28 06:19:29;;;;;;;15.73;2.22;;;10.60;99.90;;;;;;5089080;28;20044;-70
2022/12/28 06:21:54;;;;;;;21.05;2.33;;;10.60;99.90;;;;;;5087463;28;20035;-69
2022/12/28 06:24:20;;;;;;;19.02;3.58;;;10.60;99.90;;;;;;5081819;28;20403;-70
2022/12/28 06:26:46;;;;;;;18.95;3.08;;;10.60;99.90;;;;;;5083080;28;20548;-71
2022/12/28 06:29:12;;;;;;;13.82;1.98;;;10.60;99.90;;;;;;5076891;28;20116;-71
2022/12/28 06:31:42;;;;;;;23.02;3.35;;;10.60;99.90;;;;;;5077948;28;20111;-71
2022/12/28 06:34:09;;;;;;;23.83;3.65;;;10.50;99.90;;;;;;5076047;28;20138;-72
2022/12/28 06:36:37;;;;;;;18.92;2.38;;;10.50;99.90;;;;;;5079618;28;20123;-72
2022/12/28 06:39:08;;;;;;;24.38;2.97;;;10.50;99.90;;;;;;5081349;28;20157;-72
2022/12/28 06:41:33;;;;;;;19.23;3.20;;;10.40;99.90;;;;;;5077509;28;20503;-72
2022/12/28 06:44:07;;;;;;;22.45;3.40;;;10.40;99.90;;;;;;5084266;28;20048;-72
2022/12/28 06:46:34;;;;;;;29.30;3.70;;;10.40;99.90;;;;;;5081200;28;20191;-72
2022/12/28 06:49:00;;;;;;;18.92;2.60;;;10.40;99.90;;;;;;5082708;28;20017;-73
2022/12/28 06:51:31;;;;;;;22.02;3.50;;;10.40;99.90;;;;;;5062316;28;20482;-71
2022/12/28 06:53:57;;;;;;;19.45;3.65;;;10.40;99.90;;;;;;5075278;28;20109;-72
2022/12/28 06:56:25;;;;;;;25.33;2.97;;;10.30;99.90;;;;;;5081062;28;20533;-71
2022/12/28 06:58:52;;;;;;;18.83;3.72;;;10.40;99.90;;;;;;5082010;28;20089;-71
2022/12/28 07:01:22;;;;;;;19.10;2.67;;;10.30;99.90;;;;;;5085588;28;20032;-72
2022/12/28 07:03:50;;;;;;;18.10;2.47;;;10.30;99.90;;;;;;5077453;28;20024;-71
2022/12/28 07:06:18;;;;;;;16.67;1.77;;;10.40;99.90;;;;;;5086996;28;20384;-72
2022/12/28 07:08:44;;;;;;;25.98;2.97;;;10.30;99.90;;;;;;5066287;28;20028;-73
2022/12/28 07:11:13;;;;;;;14.65;1.95;;;10.30;99.90;;;;;;5084893;28;20066;-73
2022/12/28 07:13:39;;;;;;;10.50;1.70;;;10.30;99.90;;;;;;5080874;28;20044;-72
2022/12/28 07:16:08;;;;;;;16.92;2.45;;;10.30;99.90;;;;;;5091431;28;20040;-73
2022/12/28 07:18:34;;;;;;;18.45;2.60;;;10.30;99.90;;;;;;5069386;28;20148;-72
2022/12/28 07:21:14;;;;;;;18.02;3.28;;;10.30;99.90;;;;;;5080902;28;20496;-73
2022/12/28 07:23:40;;;;;;;20.60;3.15;;;10.30;99.90;;;;;;5075483;28;20032;-73
2022/12/28 07:26:19;;;;;;;7.88;1.60;;;10.20;99.90;;;;;;5090813;28;20043;-72
2022/12/28 07:28:46;;;;;;;18.13;2.90;;;10.20;99.90;;;;;;5087735;28;20026;-72
2022/12/28 07:31:15;;;;;;;16.42;2.10;;;10.20;99.90;;;;;;5075144;28;20066;-71
2022/12/28 07:33:42;;;;;;;11.82;1.42;;;10.20;99.90;;;;;;5084576;28;20032;-72
2022/12/28 07:36:10;;;;;;;16.60;2.65;;;10.20;99.90;;;;;;5072785;28;20093;-72
2022/12/28 07:38:36;;;;;;;13.48;2.97;;;10.20;99.90;;;;;;5086484;28;20021;-72
2022/12/28 07:41:10;;;;;;;15.63;2.38;;;10.20;99.90;;;;;;5079809;28;20308;-74
2022/12/28 07:43:36;;;;;;;16.80;2.10;;;10.10;99.90;;;;;;5088402;28;20036;-72
2022/12/28 07:46:03;;;;;;;12.25;1.80;;;10.10;99.90;;;;;;5070965;28;20070;-71
2022/12/28 07:48:30;;;;;;;18.25;2.25;;;10.10;99.90;;;;;;5085496;28;20020;-71
2022/12/28 07:50:57;;;;;;;17.38;2.75;;;10.10;99.90;;;;;;5083002;28;20515;-75
2022/12/28 07:53:22;;;;;;;14.10;2.25;;;10.10;99.90;;;;;;5090909;28;20020;-72
2022/12/28 07:55:56;;;;;;;16.40;3.30;;;10.20;99.90;;;;;;5089501;28;20043;-71
2022/12/28 07:58:22;;;;;;;9.73;1.52;;;10.20;99.90;;;;;;5087393;28;20024;-72
2022/12/28 08:00:49;;;;;;;14.75;3.95;;;10.20;99.90;;;;;;5090508;28;20020;-76
2022/12/28 08:03:15;;;;;;;16.15;2.80;;;10.20;99.90;;;;;;5087027;28;20036;-72
2022/12/28 08:05:41;;;;;;;9.98;1.48;;;10.20;99.90;;;;;;5090079;28;20054;-72
2022/12/28 08:08:07;;;;;;;19.77;2.65;;;10.10;99.90;;;;;;5081932;28;20445;-71
2022/12/28 08:10:33;;;;;;;12.65;2.53;;;10.10;99.90;;;;;;5092037;28;20028;-73
2022/12/28 08:13:02;;;;;;;13.98;1.80;;;10.10;99.90;;;;;;5087232;28;20028;-73
2022/12/28 08:15:28;;;;;;;14.27;2.08;;;10.10;99.90;;;;;;5089235;28;20039;-72
2022/12/28 08:17:54;;;;;;;21.42;1.92;;;10.20;99.90;;;;;;5085758;28;20433;-71
2022/12/28 08:20:21;;;;;;;14.20;2.15;;;10.10;99.90;;;;;;5091410;28;20020;-75
2022/12/28 08:22:47;;;;;;;19.67;2.83;;;10.20;99.90;;;;;;5090106;28;20081;-76
2022/12/28 08:25:13;;;;;;;16.83;2.03;;;10.20;99.90;;;;;;5087838;28;20020;-75
2022/12/28 08:27:39;;;;;;;14.80;2.28;;;10.20;99.90;;;;;;5091432;28;20012;-74
2022/12/28 08:30:05;;;;;;;17.20;2.65;;;10.30;99.90;;;;;;5083024;28;20490;-74
2022/12/28 08:32:31;;;;;;;23.95;3.35;;;10.30;99.90;;;;;;5084017;28;20028;-73
2022/12/28 08:34:57;;;;;;;19.42;2.40;;;10.30;99.90;;;;;;5078459;28;20385;-80
2022/12/28 08:37:23;;;;;;;19.35;3.15;;;10.20;99.90;;;;;;5082106;28;20066;-73
2022/12/28 08:39:49;;;;;;;19.05;2.40;;;10.30;99.90;;;;;;5085863;28;20016;-81
2022/12/28 08:42:14;;;;;;;22.95;3.53;;;10.30;99.90;;;;;;5081650;28;20139;-80
2022/12/28 08:44:40;;;;;;;23.38;2.90;;;10.20;99.90;;;;;;5082261;28;20027;-76
2022/12/28 08:47:05;;;;;;;24.65;3.15;;;10.30;99.90;;;;;;5073090;28;20100;-77
2022/12/28 08:49:33;;;;;;;26.85;4.82;;;10.30;99.90;;;;;;5093156;28;20388;-76
2022/12/28 08:51:59;;;;;;;28.10;3.00;;;10.30;99.90;;;;;;5079235;28;20017;-73
2022/12/28 08:54:24;;;;;;;20.70;2.40;;;10.30;99.90;;;;;;5083652;28;20107;-77
2022/12/28 08:56:52;;;;;;;26.92;4.20;;;10.30;99.90;;;;;;5071909;28;20044;-79
2022/12/28 08:59:18;;;;;;;24.45;3.25;;;10.30;99.90;;;;;;5090583;28;20040;-75
2022/12/28 09:01:45;;;;;;;27.75;4.22;;;10.30;99.90;;;;;;5082615;28;20062;-79
2022/12/28 09:04:19;;;;;;;25.40;3.95;;;10.30;99.90;;;;;;5081259;28;20028;-85
2022/12/28 09:06:45;;;;;;;19.23;3.15;;;10.30;99.90;;;;;;5088151;28;20567;-83
2022/12/28 09:09:13;;;;;;;20.23;3.55;;;10.40;99.90;;;;;;5097015;28;20044;-84
2022/12/28 09:11:39;;;;;;;19.30;2.25;;;10.40;99.90;;;;;;5093505;28;20028;-85
2022/12/28 09:14:08;;;;;;;22.17;3.90;;;10.30;99.90;;;;;;5087183;28;20376;-79
2022/12/28 09:16:35;;;;;;;19.90;3.15;;;10.30;99.90;;;;;;5091609;28;21403;-85
2022/12/28 09:19:03;;;;;;;20.80;2.30;;;10.40;99.90;;;;;;5078107;28;20031;-77
2022/12/28 09:21:35;;;;;;;27.77;3.40;;;10.30;99.90;;;;;;5083948;28;20120;-77
2022/12/28 09:24:02;;;;;;;21.10;3.10;;;10.30;99.90;;;;;;5081831;28;20020;-77
2022/12/28 09:26:30;;;;;;;18.67;2.60;;;10.30;99.90;;;;;;5090061;28;20030;-75
2022/12/28 09:28:58;;;;;;;28.20;3.90;;;10.30;99.90;;;;;;5071253;28;20031;-76
2022/12/28 09:31:27;;;;;;;22.75;2.72;;;10.40;99.90;;;;;;5063889;28;20024;-77
2022/12/28 09:34:00;;;;;;;15.00;2.33;;;10.30;99.90;;;;;;5070331;28;20480;-77
2022/12/28 09:36:39;;;;;;;20.52;2.85;;;10.30;99.90;;;;;;5078078;28;20024;-78
2022/12/28 09:39:11;;;;;;;16.67;3.10;;;10.20;99.90;;;;;;5068882;28;20039;-76
2022/12/28 09:42:02;;;;;;;19.50;3.28;;;10.20;99.90;;;;;;5087875;28;20097;-76
2022/12/28 09:44:49;;;;;;;21.88;3.08;;;10.20;99.90;;;;;;5083083;28;20028;-76
2022/12/28 09:47:21;;;;;;;17.83;3.53;;;10.20;99.90;;;;;;5072313;28;20039;-77
2022/12/28 09:50:10;;;;;;;16.85;2.42;;;10.20;99.90;;;;;;5086387;28;20032;-77
2022/12/28 09:53:05;;;;;;;23.60;3.95;;;10.30;99.90;;;;;;5058601;28;20025;-78
2022/12/28 09:55:33;;;;;;;20.33;4.05;;;10.30;99.90;;;;;;5077798;28;20028;-76
2022/12/28 09:58:04;;;;;;;20.60;4.63;;;10.30;99.90;;;;;;5088610;28;20028;-79
2022/12/28 10:00:40;;;;;;;23.02;4.03;;;10.30;99.90;;;;;;5089458;28;20486;-79
2022/12/28 10:03:14;;;;;;;19.55;2.60;;;10.40;99.90;;;;;;5080396;28;20032;-80
2022/12/28 10:05:40;;;;;;;22.65;2.75;;;10.30;99.90;;;;;;5090840;28;20074;-77
2022/12/28 10:08:14;;;;;;;17.80;3.10;;;10.30;99.90;;;;;;5088114;28;20479;-77
2022/12/28 10:10:41;;;;;;;15.25;2.50;;;10.40;99.90;;;;;;5084489;28;20054;-79
2022/12/28 10:13:28;;;;;;;16.58;3.03;;;10.40;99.90;;;;;;5086612;28;20058;-76
2022/12/28 10:15:57;;;;;;;16.88;2.55;;;10.40;99.90;;;;;;5086937;28;20028;-77
2022/12/28 10:18:26;;;;;;;15.43;1.95;;;10.40;99.90;;;;;;5089829;28;20024;-78
2022/12/28 10:20:52;;;;;;;19.23;2.75;;;10.40;99.90;;;;;;5088305;28;20154;-78
2022/12/28 10:23:25;;;;;;;19.13;2.63;;;10.40;99.90;;;;;;5088950;28;20082;-76
2022/12/28 10:25:54;;;;;;;20.58;2.50;;;10.40;99.90;;;;;;5088724;28;20337;-77
2022/12/28 10:28:23;;;;;;;14.18;1.67;;;10.40;99.90;;;;;;5090682;28;20058;-78
2022/12/28 10:31:05;;;;;;;11.32;2.50;;;10.40;99.90;;;;;;5091544;28;20380;-77
2022/12/28 10:33:30;;;;;;;15.48;2.42;;;10.40;99.90;;;;;;5090231;28;20054;-78
2022/12/28 10:35:56;;;;;;;19.55;2.33;;;10.30;99.90;;;;;;5089671;28;20111;-78
2022/12/28 10:38:24;;;;;;;15.88;2.72;;;10.30;99.90;;;;;;5091662;28;20032;-76
2022/12/28 10:41:02;;;;;;;17.02;2.88;;;10.30;99.90;;;;;;5090034;28;20034;-77
2022/12/28 10:43:31;;;;;;;18.90;2.60;;;10.40;99.90;;;;;;5099279;22;20570;-75
2022/12/28 10:45:59;;;;;;;20.13;2.78;;;10.40;99.90;;;;;;5075081;28;20454;-76
2022/12/28 10:48:29;;;;;;;19.88;2.20;;;10.30;99.90;;;;;;5083699;28;20428;-77
2022/12/28 10:50:59;;;;;;;27.50;3.88;;;10.30;99.90;;;;;;5074446;28;20021;-77
2022/12/28 10:53:27;;;;;;;22.80;2.80;;;10.30;99.90;;;;;;5086155;28;20024;-79
2022/12/28 10:56:15;;;;;;;16.27;2.53;;;10.30;99.90;;;;;;5081614;28;20075;-80
2022/12/28 10:58:46;;;;;;;17.25;3.85;;;10.20;99.90;;;;;;5070694;28;20036;-76
2022/12/28 11:01:11;;;;;;;18.85;4.15;;;10.20;99.90;;;;;;5092776;28;20218;-77
2022/12/28 11:03:43;;;;;;;25.85;3.42;;;10.20;99.90;;;;;;5091561;28;20051;-81
2022/12/28 11:06:11;;;;;;;24.00;3.97;;;10.20;99.90;;;;;;5091091;28;20055;-79
2022/12/28 11:08:39;;;;;;;18.10;3.28;;;10.20;99.90;;;;;;5087004;28;20048;-74
2022/12/28 11:11:17;;;;;;;19.25;4.22;;;10.20;99.90;;;;;;5087573;28;20032;-79
2022/12/28 11:13:49;;;;;;;19.38;2.85;;;10.10;99.90;;;;;;5086532;28;20024;-74
2022/12/28 11:16:15;;;;;;;18.35;2.97;;;10.20;99.90;;;;;;5075040;28;20024;-76
2022/12/28 11:18:41;;;;;;;22.75;2.72;;;10.20;99.90;;;;;;5091386;28;20157;-76
2022/12/28 11:21:12;;;;;;;23.95;3.83;;;10.20;99.90;;;;;;5078438;28;20111;-74
2022/12/28 11:23:38;;;;;;;22.30;3.50;;;10.20;99.90;;;;;;5079520;28;20527;-73
2022/12/28 11:26:07;;;;;;;20.27;2.80;;;10.10;99.90;;;;;;5088128;28;20138;-75
2022/12/28 11:28:32;;;;;;;19.02;2.78;;;10.10;99.90;;;;;;5088220;28;20047;-76
2022/12/28 11:30:58;;;;;;;19.63;2.38;;;10.10;99.90;;;;;;5089156;28;20016;-75
2022/12/28 11:33:41;;;;;;;19.60;2.78;;;10.00;99.90;;;;;;5094570;28;20065;-73
2022/12/28 11:36:15;;;;;;;21.27;3.13;;;10.00;99.90;;;;;;5090327;28;20070;-73
2022/12/28 11:38:42;;;;;;;25.20;3.78;;;10.10;99.90;;;;;;5080536;28;20114;-75
2022/12/28 11:41:22;;;;;;;24.65;6.57;;;10.00;99.90;;;;;;5087857;28;20032;-75
2022/12/28 11:43:51;;;;;;;23.45;4.05;;;10.10;99.90;;;;;;5076055;28;20412;-76
2022/12/28 11:46:19;;;;;;;25.60;5.30;;;10.10;99.90;;;;;;5089093;28;20020;-73
2022/12/28 11:49:17;;;;;;;28.98;3.83;;;10.40;99.90;;;;;;5085474;28;20020;-76
2022/12/28 11:51:43;;;;;;;15.32;3.45;;;10.40;99.90;;;;;;5084800;28;20021;-74
2022/12/28 11:54:38;;;;;;;33.08;4.53;;;10.40;99.90;;;;;;5084751;28;20086;-73
2022/12/28 11:57:06;;;;;;;25.67;3.28;;;10.50;99.90;;;;;;5080089;28;20040;-77
2022/12/28 11:59:35;;;;;;;36.38;4.43;;;10.50;99.90;;;;;;5080643;28;20039;-77
2022/12/28 12:02:02;;;;;;;19.52;3.42;;;10.50;99.90;;;;;;5084933;28;20419;-77
2022/12/28 12:04:31;;;;;;;21.13;2.90;;;10.50;99.90;;;;;;5101202;28;20043;-77
2022/12/28 12:07:02;;;;;;;20.88;2.55;;;10.50;99.90;;;;;;5082041;28;20028;-81
2022/12/28 12:09:32;;;;;;;21.90;3.60;;;10.50;99.90;;;;;;5083963;28;20093;-76
2022/12/28 12:12:22;;;;;;;21.20;4.30;;;10.50;99.90;;;;;;5082884;28;20036;-76
2022/12/28 12:15:01;;;;;;;18.17;2.63;;;10.50;99.90;;;;;;5067296;28;20043;-86
2022/12/28 12:18:05;;;;;;;19.13;2.83;;;10.50;99.90;;;;;;5081580;28;20052;-78
2022/12/28 12:20:43;;;;;;;21.65;3.60;;;10.40;99.90;;;;;;5087149;28;20489;-82
2022/12/28 12:23:35;;;;;;;20.63;3.55;;;10.40;99.90;;;;;;5077734;28;20125;-78
2022/12/28 12:26:29;;;;;;;29.75;3.55;;;10.40;99.90;;;;;;5071778;28;20032;-77
2022/12/28 12:29:03;;;;;;;21.13;3.72;;;10.40;99.90;;;;;;5078650;28;20020;-72
2022/12/28 12:31:42;;;;;;;28.13;3.10;;;10.40;99.90;;;;;;5079024;28;20115;-73
2022/12/28 12:34:38;;;;;;;17.85;3.20;;;10.40;99.90;;;;;;5077710;28;20399;-72
2022/12/28 12:37:36;;;;;;;23.83;2.97;;;10.40;99.90;;;;;;5081558;28;20094;-72
2022/12/28 12:40:27;;;;;;;18.67;3.53;;;10.30;99.90;;;;;;5079309;28;20058;-73
2022/12/28 12:42:58;;;;;;;24.23;4.15;;;10.30;99.90;;;;;;5075777;28;20167;-72
2022/12/28 12:45:50;;;;;;;19.20;3.03;;;10.30;99.90;;;;;;5078389;28;20028;-72
2022/12/28 12:48:58;;;;;;;24.25;3.15;;;10.30;99.90;;;;;;5081559;28;20032;-74
2022/12/28 12:52:20;;;;;;;26.73;4.15;;;10.40;99.90;;;;;;5068994;28;20112;-73
2022/12/28 12:54:55;;;;;;;17.63;2.67;;;10.40;99.90;;;;;;4996153;28;20508;-73
2022/12/28 12:58:01;;;;;;;22.98;3.53;;;10.30;99.90;;;;;;4986779;28;20050;-74
2022/12/28 13:00:43;;;;;;;24.92;3.67;;;10.40;99.90;;;;;;4992408;28;20065;-72
2022/12/28 13:03:34;;;;;;;20.65;3.55;;;10.40;99.90;;;;;;4997181;28;20137;-72
2022/12/28 13:06:04;;;;;;;22.38;3.13;;;10.50;99.90;;;;;;4997879;28;20053;-72
2022/12/28 13:08:51;;;;;;;18.60;3.17;;;10.50;99.90;;;;;;4995927;28;20040;-71
2022/12/28 13:11:18;;;;;;;32.00;5.18;;;10.50;99.90;;;;;;4989900;28;20038;-72
2022/12/28 13:13:47;;;;;;;26.17;4.47;;;10.50;99.90;;;;;;4980912;28;20029;-72
2022/12/28 13:16:22;;;;;;;27.13;3.78;;;10.50;99.90;;;;;;4999076;28;20129;-73
2022/12/28 13:19:05;;;;;;;30.60;4.97;;;10.50;99.90;;;;;;4993217;28;20165;-73
2022/12/28 13:21:43;;;;;;;20.10;2.95;;;10.50;99.90;;;;;;4997149;28;20038;-72
2022/12/28 13:24:30;;;;;;;21.73;3.65;;;10.60;99.90;;;;;;5002940;28;20527;-73
2022/12/28 13:26:58;;;;;;;17.35;2.97;;;10.50;99.90;;;;;;5083361;28;20035;-73